createdAt,value
2019-03-27T00:00:42.389Z,99.90
2019-03-27T00:03:12.144Z,99.90
2019-03-27T00:05:41.898Z,99.90
2019-03-27T00:08:11.319Z,99.90
2019-03-27T00:10:41.105Z,99.90
2019-03-27T00:13:10.496Z,99.90
2019-03-27T00:15:39.908Z,99.90
2019-03-27T00:18:09.978Z,99.90
2019-03-27T00:20:39.913Z,99.90
2019-03-27T00:23:09.300Z,99.90
2019-03-27T00:25:38.718Z,99.90
2019-03-27T00:28:08.552Z,99.90
2019-03-27T00:30:38.348Z,99.90
2019-03-27T00:33:07.770Z,99.90
2019-03-27T00:35:37.651Z,99.90
2019-03-27T00:38:06.988Z,99.90
2019-03-27T00:40:36.596Z,99.90
2019-03-27T00:43:05.948Z,99.90
2019-03-27T00:45:35.398Z,99.90
2019-03-27T00:48:04.884Z,99.90
2019-03-27T00:50:34.366Z,99.90
2019-03-27T00:53:04.156Z,99.90
2019-03-27T00:55:34.217Z,99.90
2019-03-27T00:58:03.973Z,99.90
2019-03-27T01:00:59.566Z,99.90
2019-03-27T01:03:29.304Z,99.90
2019-03-27T01:05:58.682Z,99.90
2019-03-27T01:08:28.385Z,99.90
2019-03-27T01:10:58.211Z,99.90
2019-03-27T01:13:27.936Z,99.90
2019-03-27T01:15:58.083Z,99.90
2019-03-27T01:18:27.731Z,99.90
2019-03-27T01:20:57.172Z,99.90
2019-03-27T01:23:26.608Z,99.90
2019-03-27T01:25:56.053Z,99.90
2019-03-27T01:28:25.920Z,99.90
2019-03-27T01:30:55.261Z,99.90
2019-03-27T01:33:24.807Z,99.90
2019-03-27T01:35:54.574Z,99.90
2019-03-27T01:38:24.191Z,99.90
2019-03-27T01:40:53.641Z,99.90
2019-03-27T01:43:23.829Z,99.90
2019-03-27T01:45:53.509Z,99.90
2019-03-27T01:48:23.524Z,99.90
2019-03-27T01:50:53.205Z,99.90
2019-03-27T01:53:22.531Z,99.90
2019-03-27T01:55:52.156Z,99.90
2019-03-27T01:58:21.504Z,99.90
2019-03-27T02:00:51.290Z,99.90
2019-03-27T02:03:20.708Z,99.90
2019-03-27T02:05:50.414Z,99.90
2019-03-27T02:08:20.009Z,99.90
2019-03-27T02:10:49.444Z,99.90
2019-03-27T02:13:19.123Z,99.90
2019-03-27T02:15:48.564Z,99.90
2019-03-27T02:18:18.525Z,99.90
2019-03-27T02:20:48.161Z,99.90
2019-03-27T02:23:17.508Z,99.90
2019-03-27T02:25:47.125Z,99.90
2019-03-27T02:28:17.080Z,99.90
2019-03-27T02:30:46.502Z,99.90
2019-03-27T02:33:16.129Z,99.90
2019-03-27T02:35:45.538Z,99.90
2019-03-27T02:38:14.986Z,99.90
2019-03-27T02:40:44.945Z,99.90
2019-03-27T02:43:14.529Z,99.90
2019-03-27T02:45:43.886Z,99.90
2019-03-27T02:48:14.227Z,99.90
2019-03-27T02:50:44.195Z,99.90
2019-03-27T02:53:14.076Z,99.90
2019-03-27T02:55:43.772Z,99.90
2019-03-27T02:58:13.379Z,99.90
2019-03-27T03:00:43.052Z,99.90
2019-03-27T03:03:13.039Z,99.90
2019-03-27T03:05:42.365Z,99.90
2019-03-27T03:08:11.723Z,99.90
2019-03-27T03:10:45.267Z,99.90
2019-03-27T03:13:12.668Z,99.90
2019-03-27T03:15:42.038Z,99.90
2019-03-27T03:18:11.906Z,99.90
2019-03-27T03:20:41.465Z,99.90
2019-03-27T03:23:11.134Z,99.90
2019-03-27T03:25:40.473Z,99.90
2019-03-27T03:28:10.321Z,99.90
2019-03-27T03:30:39.973Z,99.90
2019-03-27T03:33:10.293Z,99.90
2019-03-27T03:35:39.695Z,99.90
2019-03-27T03:38:09.334Z,99.90
2019-03-27T03:40:39.068Z,99.90
2019-03-27T03:43:08.565Z,99.90
2019-03-27T03:45:38.333Z,99.90
2019-03-27T03:48:07.959Z,99.90
2019-03-27T03:50:44.885Z,99.90
2019-03-27T03:53:15.458Z,99.90
2019-03-27T03:55:45.597Z,99.90
2019-03-27T03:58:17.097Z,99.90
2019-03-27T04:00:46.948Z,99.90
2019-03-27T04:03:16.664Z,99.90
2019-03-27T04:05:46.297Z,99.90
2019-03-27T04:08:15.860Z,99.90
2019-03-27T04:10:45.372Z,99.90
2019-03-27T04:13:14.836Z,99.90
2019-03-27T04:15:44.684Z,99.90
2019-03-27T04:18:14.592Z,99.90
2019-03-27T04:20:44.279Z,99.90
2019-03-27T04:23:13.613Z,99.90
2019-03-27T04:26:08.441Z,99.90
2019-03-27T04:28:14.609Z,99.90
2019-03-27T04:30:44.248Z,99.90
2019-03-27T04:33:14.134Z,99.90
2019-03-27T04:35:43.996Z,99.90
2019-03-27T04:38:13.706Z,99.90
2019-03-27T04:40:43.433Z,99.90
2019-03-27T04:43:13.375Z,99.90
2019-03-27T04:45:42.952Z,99.90
2019-03-27T04:48:12.529Z,99.90
2019-03-27T04:50:42.104Z,99.90
2019-03-27T04:53:11.436Z,99.90
2019-03-27T04:55:41.382Z,99.90
2019-03-27T04:58:11.217Z,99.90
2019-03-27T05:00:40.813Z,99.90
2019-03-27T05:03:10.483Z,99.90
2019-03-27T05:05:40.137Z,99.90
2019-03-27T05:08:09.549Z,99.90
2019-03-27T05:10:38.892Z,99.90
2019-03-27T05:13:08.231Z,99.90
2019-03-27T05:15:37.882Z,99.90
2019-03-27T05:18:07.546Z,99.90
2019-03-27T05:20:37.188Z,99.90
2019-03-27T05:23:06.538Z,99.90
2019-03-27T05:25:35.890Z,99.90
2019-03-27T05:28:05.225Z,99.90
2019-03-27T05:30:34.584Z,99.90
2019-03-27T05:33:04.096Z,99.90
2019-03-27T05:35:33.933Z,99.90
2019-03-27T05:38:03.276Z,99.90
2019-03-27T05:40:33.296Z,99.90
2019-03-27T05:43:02.897Z,99.90
2019-03-27T05:45:32.711Z,99.90
2019-03-27T05:48:02.315Z,99.90
2019-03-27T05:50:32.000Z,99.90
2019-03-27T05:53:01.350Z,99.90
2019-03-27T05:55:30.705Z,99.90
2019-03-27T05:58:00.305Z,99.90
2019-03-27T06:00:29.629Z,99.90
2019-03-27T06:02:59.457Z,99.90
2019-03-27T06:05:29.385Z,99.90
2019-03-27T06:07:58.724Z,99.90
2019-03-27T06:10:28.302Z,99.90
2019-03-27T06:12:57.802Z,99.90
2019-03-27T06:15:27.300Z,99.90
2019-03-27T06:17:57.118Z,99.90
2019-03-27T06:20:26.984Z,99.90
2019-03-27T06:22:59.608Z,99.90
2019-03-27T06:25:29.448Z,99.90
2019-03-27T06:27:59.007Z,99.90
2019-03-27T06:30:28.925Z,99.90
2019-03-27T06:32:58.797Z,99.90
2019-03-27T06:35:28.677Z,99.90
2019-03-27T06:37:58.148Z,99.90
2019-03-27T06:40:27.792Z,99.90
2019-03-27T06:42:57.628Z,99.90
2019-03-27T06:45:27.285Z,99.90
2019-03-27T06:47:57.171Z,99.90
2019-03-27T06:50:26.555Z,99.90
2019-03-27T06:52:55.916Z,99.90
2019-03-27T06:55:25.580Z,99.90
2019-03-27T06:57:54.933Z,99.90
2019-03-27T07:00:38.068Z,99.90
2019-03-27T07:03:08.185Z,99.90
2019-03-27T07:05:38.165Z,99.90
2019-03-27T07:08:07.580Z,99.90
2019-03-27T07:10:36.909Z,99.90
2019-03-27T07:13:06.481Z,99.90
2019-03-27T07:15:36.036Z,99.90
2019-03-27T07:18:05.532Z,99.90
2019-03-27T07:20:35.362Z,99.90
2019-03-27T07:23:04.769Z,99.90
2019-03-27T07:25:34.445Z,99.90
2019-03-27T07:28:04.192Z,99.90
2019-03-27T07:30:33.829Z,99.90
2019-03-27T07:33:03.481Z,99.90
2019-03-27T07:35:33.094Z,99.90
2019-03-27T07:38:03.046Z,99.90
2019-03-27T07:40:32.731Z,99.90
2019-03-27T07:43:02.421Z,99.90
2019-03-27T07:45:31.734Z,99.90
2019-03-27T07:48:01.044Z,99.90
2019-03-27T07:50:30.413Z,99.90
2019-03-27T07:52:59.740Z,99.90
2019-03-27T07:55:29.610Z,99.90
2019-03-27T07:57:59.225Z,99.90
2019-03-27T08:00:29.051Z,99.90
2019-03-27T08:02:58.372Z,99.90
2019-03-27T08:05:28.315Z,99.90
2019-03-27T08:07:57.917Z,99.90
2019-03-27T08:10:27.248Z,99.90
2019-03-27T08:12:56.737Z,99.90
2019-03-27T08:15:26.154Z,99.90
2019-03-27T08:17:55.502Z,99.90
2019-03-27T08:20:25.129Z,99.90
2019-03-27T08:22:54.580Z,99.90
2019-03-27T08:25:23.997Z,99.90
2019-03-27T08:27:53.612Z,99.90
2019-03-27T08:30:23.173Z,99.90
2019-03-27T08:32:53.397Z,99.90
2019-03-27T08:35:23.088Z,99.90
2019-03-27T08:37:52.419Z,99.90
2019-03-27T08:40:21.746Z,99.90
2019-03-27T08:42:51.417Z,99.90
2019-03-27T08:45:21.082Z,99.90
2019-03-27T08:47:50.747Z,99.90
2019-03-27T08:50:20.472Z,99.90
2019-03-27T08:52:49.836Z,99.90
2019-03-27T08:55:19.511Z,99.90
2019-03-27T08:57:49.163Z,99.90
2019-03-27T09:00:22.533Z,99.90
2019-03-27T09:02:52.446Z,99.90
2019-03-27T09:05:22.276Z,99.90
2019-03-27T09:07:52.168Z,99.90
2019-03-27T09:10:21.836Z,99.90
2019-03-27T09:12:51.433Z,99.90
2019-03-27T09:15:20.835Z,99.90
2019-03-27T09:17:51.024Z,99.90
2019-03-27T09:20:20.599Z,99.90
2019-03-27T09:22:50.188Z,99.90
2019-03-27T09:25:20.116Z,99.90
2019-03-27T09:27:49.801Z,99.90
2019-03-27T09:30:20.496Z,99.90
2019-03-27T09:32:50.095Z,99.90
2019-03-27T09:35:19.746Z,99.90
2019-03-27T09:37:49.084Z,99.90
2019-03-27T09:40:18.679Z,99.90
2019-03-27T09:42:48.270Z,99.90
2019-03-27T09:45:17.772Z,99.90
2019-03-27T09:47:47.361Z,99.90
2019-03-27T09:50:16.810Z,99.90
2019-03-27T09:52:46.142Z,99.90
2019-03-27T09:55:15.900Z,99.90
2019-03-27T09:57:45.488Z,98.90
2019-03-27T10:00:16.733Z,97.70
2019-03-27T10:02:46.070Z,93.00
2019-03-27T10:05:15.481Z,93.80
2019-03-27T10:07:44.820Z,86.90
2019-03-27T10:10:14.505Z,92.00
2019-03-27T10:12:43.997Z,92.60
2019-03-27T10:15:13.573Z,96.50
2019-03-27T10:17:42.929Z,99.30
2019-03-27T10:20:13.772Z,96.00
2019-03-27T10:22:43.401Z,95.70
2019-03-27T10:25:13.001Z,90.00
2019-03-27T10:27:42.362Z,89.20
2019-03-27T10:30:12.797Z,90.50
2019-03-27T10:32:42.206Z,92.50
2019-03-27T10:35:11.914Z,93.70
2019-03-27T10:37:41.537Z,97.40
2019-03-27T10:40:11.813Z,93.60
2019-03-27T10:42:41.165Z,93.30
2019-03-27T10:45:10.959Z,94.70
2019-03-27T10:47:40.344Z,95.70
2019-03-27T10:50:17.466Z,92.30
2019-03-27T10:52:41.765Z,92.40
2019-03-27T10:55:11.651Z,92.70
2019-03-27T10:57:41.245Z,90.70
2019-03-27T11:00:11.557Z,94.80
2019-03-27T11:02:41.054Z,92.30
2019-03-27T11:05:10.496Z,96.80
2019-03-27T11:07:40.157Z,93.50
2019-03-27T11:10:09.862Z,95.00
2019-03-27T11:12:39.588Z,91.20
2019-03-27T11:15:10.896Z,92.50
2019-03-27T11:17:40.809Z,88.80
2019-03-27T11:20:11.937Z,86.20
2019-03-27T11:22:41.272Z,77.10
2019-03-27T11:25:10.977Z,77.60
2019-03-27T11:27:40.917Z,75.30
2019-03-27T11:30:11.588Z,68.90
2019-03-27T11:32:41.327Z,69.80
2019-03-27T11:35:10.911Z,68.60
2019-03-27T11:37:40.365Z,72.00
2019-03-27T11:40:09.985Z,76.70
2019-03-27T11:42:39.324Z,69.70
2019-03-27T11:45:09.958Z,68.90
2019-03-27T11:47:39.282Z,70.40
2019-03-27T11:50:10.173Z,63.70
2019-03-27T11:52:39.741Z,69.40
2019-03-27T11:55:09.368Z,63.20
2019-03-27T11:57:38.919Z,68.60
2019-03-27T12:00:09.744Z,66.60
2019-03-27T12:02:39.433Z,74.50
2019-03-27T12:05:09.491Z,67.90
2019-03-27T12:07:39.293Z,67.00
2019-03-27T12:10:09.150Z,63.40
2019-03-27T12:12:38.885Z,68.20
2019-03-27T12:15:09.098Z,68.60
2019-03-27T12:17:38.668Z,69.90
2019-03-27T12:20:10.037Z,72.50
2019-03-27T12:22:39.523Z,73.20
2019-03-27T12:25:09.169Z,71.20
2019-03-27T12:27:38.845Z,71.00
2019-03-27T12:30:09.322Z,71.70
2019-03-27T12:32:41.129Z,75.40
2019-03-27T12:35:10.861Z,76.20
2019-03-27T12:37:40.784Z,74.30
2019-03-27T12:40:11.688Z,70.80
2019-03-27T12:42:42.013Z,71.00
2019-03-27T12:45:11.655Z,70.10
2019-03-27T12:47:41.285Z,66.90
2019-03-27T12:50:11.475Z,69.30
2019-03-27T12:52:40.922Z,69.30
2019-03-27T12:55:29.465Z,71.40
2019-03-27T12:57:58.972Z,73.20
2019-03-27T13:00:28.813Z,69.20
2019-03-27T13:02:58.738Z,67.90
2019-03-27T13:05:28.154Z,69.10
2019-03-27T13:07:57.720Z,69.80
2019-03-27T13:10:27.325Z,73.40
2019-03-27T13:12:56.821Z,75.00
2019-03-27T13:15:26.597Z,70.30
2019-03-27T13:17:55.917Z,73.00
2019-03-27T13:20:25.562Z,75.20
2019-03-27T13:22:55.169Z,69.20
2019-03-27T13:25:25.043Z,71.90
2019-03-27T13:27:55.012Z,74.40
2019-03-27T13:30:24.967Z,72.60
2019-03-27T13:33:00.013Z,68.80
2019-03-27T13:35:32.169Z,74.10
2019-03-27T13:38:01.834Z,65.70
2019-03-27T13:40:31.437Z,63.70
2019-03-27T13:43:01.193Z,67.80
2019-03-27T13:45:30.558Z,68.80
2019-03-27T13:48:00.226Z,65.30
2019-03-27T13:50:29.845Z,68.20
2019-03-27T13:52:59.712Z,63.40
2019-03-27T13:55:29.167Z,60.50
2019-03-27T13:57:58.913Z,65.30
2019-03-27T14:00:28.540Z,65.40
2019-03-27T14:02:58.252Z,64.80
2019-03-27T14:05:27.856Z,64.00
2019-03-27T14:07:57.346Z,69.10
2019-03-27T14:10:27.320Z,67.70
2019-03-27T14:12:57.053Z,67.00
2019-03-27T14:15:27.677Z,67.80
2019-03-27T14:17:57.047Z,61.70
2019-03-27T14:20:26.488Z,66.70
2019-03-27T14:22:56.175Z,69.50
2019-03-27T14:25:26.143Z,68.80
2019-03-27T14:27:55.574Z,70.50
2019-03-27T14:30:48.836Z,66.00
2019-03-27T14:33:18.503Z,68.60
2019-03-27T14:35:48.038Z,63.90
2019-03-27T14:38:18.057Z,61.60
2019-03-27T14:40:47.576Z,62.30
2019-03-27T14:43:16.921Z,60.90
2019-03-27T14:45:46.531Z,63.10
2019-03-27T14:48:18.956Z,61.20
2019-03-27T14:50:48.493Z,61.50
2019-03-27T14:53:17.930Z,60.40
2019-03-27T14:55:47.341Z,60.50
2019-03-27T14:58:17.068Z,58.30
2019-03-27T15:00:46.574Z,59.40
2019-03-27T15:03:16.871Z,60.00
2019-03-27T15:05:46.720Z,59.70
2019-03-27T15:08:16.089Z,62.00
2019-03-27T15:10:45.905Z,61.20
2019-03-27T15:13:15.636Z,62.40
2019-03-27T15:15:48.588Z,59.80
2019-03-27T15:18:18.345Z,60.50
2019-03-27T15:20:47.705Z,62.10
2019-03-27T15:23:17.116Z,62.20
2019-03-27T15:25:46.577Z,63.40
2019-03-27T15:28:15.905Z,65.00
2019-03-27T15:30:45.269Z,64.60
2019-03-27T15:33:15.225Z,66.10
2019-03-27T15:35:44.866Z,69.70
2019-03-27T15:38:14.461Z,67.00
2019-03-27T15:40:45.337Z,67.60
2019-03-27T15:43:14.993Z,70.70
2019-03-27T15:45:45.133Z,69.30
2019-03-27T15:48:14.806Z,71.60
2019-03-27T15:50:55.591Z,75.90
2019-03-27T15:53:15.571Z,72.50
2019-03-27T15:55:45.970Z,73.40
2019-03-27T15:58:15.976Z,76.50
2019-03-27T16:00:46.240Z,79.90
2019-03-27T16:03:16.233Z,81.20
2019-03-27T16:05:45.833Z,83.30
2019-03-27T16:08:15.262Z,79.00
2019-03-27T16:10:44.980Z,82.30
2019-03-27T16:13:14.863Z,86.20
2019-03-27T16:15:44.522Z,90.10
2019-03-27T16:18:16.529Z,88.00
2019-03-27T16:20:45.592Z,85.80
2019-03-27T16:23:17.310Z,90.20
2019-03-27T16:25:46.941Z,90.80
2019-03-27T16:28:16.317Z,92.50
2019-03-27T16:30:46.377Z,92.30
2019-03-27T16:33:15.976Z,91.60
2019-03-27T16:35:45.577Z,92.80
2019-03-27T16:38:18.133Z,92.90
2019-03-27T16:40:49.201Z,93.80
2019-03-27T16:43:19.701Z,94.60
2019-03-27T16:45:49.853Z,94.30
2019-03-27T16:48:19.357Z,93.10
2019-03-27T16:50:50.036Z,93.80
2019-03-27T16:53:19.507Z,93.50
2019-03-27T16:55:49.191Z,94.30
2019-03-27T16:58:18.637Z,94.30
2019-03-27T17:00:49.643Z,94.80
2019-03-27T17:03:21.429Z,94.90
2019-03-27T17:05:54.353Z,96.00
2019-03-27T17:08:22.175Z,96.30
2019-03-27T17:10:54.443Z,97.10
2019-03-27T17:13:43.394Z,97.60
2019-03-27T17:16:13.384Z,98.30
2019-03-27T17:18:42.757Z,98.30
2019-03-27T17:21:12.610Z,98.50
2019-03-27T17:23:42.693Z,99.00
2019-03-27T17:26:12.210Z,99.00
2019-03-27T17:28:41.821Z,98.70
2019-03-27T17:31:11.652Z,99.10
2019-03-27T17:33:41.233Z,99.40
2019-03-27T17:36:10.754Z,99.70
2019-03-27T17:38:42.501Z,99.80
2019-03-27T17:41:12.422Z,99.90
2019-03-27T17:43:41.870Z,99.90
2019-03-27T17:46:11.673Z,99.90
2019-03-27T17:48:42.163Z,99.90
2019-03-27T17:51:12.999Z,99.90
2019-03-27T17:53:42.800Z,99.90
2019-03-27T17:56:12.507Z,99.90
2019-03-27T17:58:46.055Z,99.90
2019-03-27T18:01:17.403Z,99.90
2019-03-27T18:03:46.951Z,99.90
2019-03-27T18:06:18.917Z,99.90
2019-03-27T18:08:48.579Z,99.90
2019-03-27T18:11:26.830Z,99.90
2019-03-27T18:13:56.803Z,99.90
2019-03-27T18:16:30.647Z,99.90
2019-03-27T18:19:04.183Z,99.90
2019-03-27T18:21:33.770Z,99.90
2019-03-27T18:24:03.626Z,99.90
2019-03-27T18:26:33.216Z,99.90
2019-03-27T18:29:02.859Z,99.90
2019-03-27T18:31:35.549Z,99.90
2019-03-27T18:34:05.260Z,99.90
2019-03-27T18:36:35.240Z,99.90
2019-03-27T18:39:07.344Z,99.90
2019-03-27T18:41:36.974Z,99.90
2019-03-27T18:44:06.283Z,99.90
2019-03-27T18:46:35.832Z,99.90
2019-03-27T18:49:05.623Z,99.90
2019-03-27T18:51:35.259Z,99.90
2019-03-27T18:54:04.923Z,99.90
2019-03-27T18:56:35.741Z,99.90
2019-03-27T18:59:05.370Z,99.90
2019-03-27T19:01:34.924Z,99.90
2019-03-27T19:04:04.525Z,99.90
2019-03-27T19:06:33.844Z,99.90
2019-03-27T19:09:03.904Z,99.90
2019-03-27T19:11:33.644Z,99.90
2019-03-27T19:14:02.948Z,99.90
2019-03-27T19:16:32.624Z,99.90
2019-03-27T19:19:01.923Z,99.90
2019-03-27T19:21:31.523Z,99.90
2019-03-27T19:24:13.272Z,99.90
2019-03-27T19:26:32.627Z,99.90
2019-03-27T19:29:02.909Z,99.90
2019-03-27T19:31:32.775Z,99.90
2019-03-27T19:34:02.536Z,99.90
2019-03-27T19:36:31.946Z,99.90
2019-03-27T19:39:01.930Z,99.90
2019-03-27T19:41:31.636Z,99.90
2019-03-27T19:44:01.459Z,99.90
2019-03-27T19:46:30.848Z,99.90
2019-03-27T19:49:00.501Z,99.90
2019-03-27T19:51:30.155Z,99.90
2019-03-27T19:53:59.499Z,99.90
2019-03-27T19:56:29.339Z,99.90
2019-03-27T19:58:59.333Z,99.90
2019-03-27T20:01:29.099Z,99.90
2019-03-27T20:03:58.699Z,99.90
2019-03-27T20:06:28.290Z,99.90
2019-03-27T20:08:57.961Z,99.90
2019-03-27T20:11:27.887Z,99.90
2019-03-27T20:13:57.714Z,99.90
2019-03-27T20:16:27.618Z,99.90
2019-03-27T20:18:58.645Z,99.90
2019-03-27T20:21:28.028Z,99.90
2019-03-27T20:23:57.928Z,99.90
2019-03-27T20:26:28.066Z,99.90
2019-03-27T20:28:57.920Z,99.90
2019-03-27T20:31:27.483Z,99.90
2019-03-27T20:33:57.711Z,99.90
2019-03-27T20:36:27.271Z,99.90
2019-03-27T20:38:56.911Z,99.90
2019-03-27T20:41:26.773Z,99.90
2019-03-27T20:43:56.344Z,99.90
2019-03-27T20:46:29.529Z,99.90
2019-03-27T20:48:59.219Z,99.90
2019-03-27T20:51:28.851Z,99.90
2019-03-27T20:54:01.268Z,99.90
2019-03-27T20:56:29.902Z,99.90
2019-03-27T20:59:01.297Z,99.90
2019-03-27T21:01:30.861Z,99.90
2019-03-27T21:04:00.671Z,99.90
2019-03-27T21:06:30.407Z,99.90
2019-03-27T21:09:00.326Z,99.90
2019-03-27T21:11:30.527Z,99.90
2019-03-27T21:14:00.132Z,99.90
2019-03-27T21:16:29.432Z,99.90
2019-03-27T21:18:59.231Z,99.90
2019-03-27T21:21:28.533Z,99.90
2019-03-27T21:23:58.476Z,99.90
2019-03-27T21:26:28.551Z,99.90
2019-03-27T21:28:59.843Z,99.90
2019-03-27T21:31:30.191Z,99.90
2019-03-27T21:33:59.895Z,99.90
2019-03-27T21:36:29.694Z,99.90
2019-03-27T21:38:59.387Z,99.90
2019-03-27T21:41:29.058Z,99.90
2019-03-27T21:43:58.884Z,99.90
2019-03-27T21:46:28.753Z,99.90
2019-03-27T21:48:58.490Z,99.90
2019-03-27T21:51:29.647Z,99.90
2019-03-27T21:53:59.164Z,99.90
2019-03-27T21:56:28.983Z,99.90
2019-03-27T21:59:02.268Z,99.90
2019-03-27T22:01:33.316Z,99.90
2019-03-27T22:04:02.720Z,99.90
2019-03-27T22:06:33.164Z,99.90
2019-03-27T22:09:04.403Z,99.90
2019-03-27T22:11:34.008Z,99.90
2019-03-27T22:14:03.683Z,99.90
2019-03-27T22:16:33.567Z,99.90
2019-03-27T22:19:03.198Z,99.90
2019-03-27T22:21:33.298Z,99.90
2019-03-27T22:24:03.261Z,99.90
2019-03-27T22:26:33.252Z,99.90
2019-03-27T22:29:02.653Z,99.90
2019-03-27T22:31:34.205Z,99.90
2019-03-27T22:34:03.816Z,99.90
2019-03-27T22:36:33.635Z,99.90
2019-03-27T22:39:03.275Z,99.90
2019-03-27T22:41:33.335Z,99.90
2019-03-27T22:44:02.859Z,99.90
2019-03-27T22:46:32.556Z,99.90
2019-03-27T22:49:02.155Z,99.90
2019-03-27T22:51:31.565Z,99.90
2019-03-27T22:54:02.100Z,99.90
2019-03-27T22:56:32.209Z,99.90
2019-03-27T22:59:02.347Z,99.90
2019-03-27T23:01:41.787Z,99.90
2019-03-27T23:04:11.502Z,99.90
2019-03-27T23:06:41.055Z,99.90
2019-03-27T23:09:10.695Z,99.90
2019-03-27T23:11:40.295Z,99.90
2019-03-27T23:14:10.535Z,99.90
2019-03-27T23:16:40.435Z,99.90
2019-03-27T23:19:10.357Z,99.90
2019-03-27T23:21:40.571Z,99.90
2019-03-27T23:24:11.058Z,99.90
2019-03-27T23:26:40.671Z,99.90
2019-03-27T23:29:10.671Z,99.90
2019-03-27T23:31:40.751Z,99.90
2019-03-27T23:34:10.450Z,99.90
2019-03-27T23:36:40.009Z,99.90
2019-03-27T23:39:10.317Z,99.90
2019-03-27T23:41:39.863Z,99.90
2019-03-27T23:44:09.662Z,99.90
2019-03-27T23:46:39.458Z,99.90
2019-03-27T23:49:08.886Z,99.90
2019-03-27T23:51:38.782Z,99.90
2019-03-27T23:54:08.469Z,99.90
2019-03-27T23:56:38.382Z,99.90
2019-03-27T23:59:08.055Z,99.90
